Time;durP1;ratioP1;P1;durP2;ratioP2;P2;SDS_P1;SDS_P2;PMS_P1;PMS_P2;Temp;Humidity;BMP_temperature;BMP_pressure;BME280_temperature;BME280_humidity;BME280_pressure;Samples;Min_cycle;Max_cycle;Signal;HPM_P1;HPM_P2
2022/06/19 00:02:18;;;;;;;14.80;3.42;;;15.00;99.90;;;;;;5033343;28;20043;-26
2022/06/19 00:04:46;;;;;;;15.77;4.03;;;15.00;99.90;;;;;;5032749;28;20055;-26
2022/06/19 00:07:12;;;;;;;14.27;3.63;;;15.00;99.90;;;;;;5027687;28;20041;-27
2022/06/19 00:09:38;;;;;;;13.32;3.28;;;15.00;99.90;;;;;;5036124;28;20401;-26
2022/06/19 00:12:05;;;;;;;15.68;3.38;;;15.00;99.90;;;;;;5053191;28;20099;-26
2022/06/19 00:14:33;;;;;;;10.60;3.33;;;14.90;99.90;;;;;;5052628;28;20355;-27
2022/06/19 00:17:00;;;;;;;17.23;3.80;;;14.90;99.90;;;;;;5034879;28;20455;-26
2022/06/19 00:19:26;;;;;;;11.10;3.28;;;14.90;99.90;;;;;;5047560;28;20045;-27
2022/06/19 00:21:52;;;;;;;15.82;3.80;;;14.90;99.90;;;;;;5043869;28;20033;-27
2022/06/19 00:24:17;;;;;;;16.92;3.50;;;14.90;99.90;;;;;;5052771;28;20033;-25
2022/06/19 00:26:43;;;;;;;13.48;3.55;;;14.80;99.90;;;;;;5052192;28;20036;-26
2022/06/19 00:29:09;;;;;;;14.35;3.95;;;14.80;99.90;;;;;;5052296;28;20093;-27
2022/06/19 00:31:35;;;;;;;14.20;3.97;;;14.80;99.90;;;;;;5054048;28;20038;-26
2022/06/19 00:34:01;;;;;;;18.67;4.43;;;14.80;99.90;;;;;;5052623;28;20044;-26
2022/06/19 00:36:27;;;;;;;14.00;4.00;;;14.80;99.90;;;;;;5056288;28;20037;-25
2022/06/19 00:38:54;;;;;;;13.25;3.25;;;14.70;99.90;;;;;;5050223;28;20037;-26
2022/06/19 00:41:20;;;;;;;15.45;3.30;;;14.70;99.90;;;;;;5036191;28;20529;-26
2022/06/19 00:43:59;;;;;;;15.13;3.35;;;14.70;99.90;;;;;;5043633;28;20064;-26
2022/06/19 00:46:43;;;;;;;14.18;4.10;;;14.70;99.90;;;;;;5055955;28;20041;-26
2022/06/19 00:49:37;;;;;;;12.95;3.78;;;14.70;99.90;;;;;;5056356;28;20080;-26
2022/06/19 00:52:13;;;;;;;13.68;3.63;;;14.70;99.90;;;;;;5051461;28;20110;-26
2022/06/19 00:54:57;;;;;;;15.32;3.55;;;14.60;99.90;;;;;;5054509;28;20465;-26
2022/06/19 00:57:26;;;;;;;12.60;3.30;;;14.70;99.90;;;;;;5052999;28;20060;-27
2022/06/19 00:59:59;;;;;;;17.45;3.58;;;14.70;99.90;;;;;;5056550;28;20033;-27
2022/06/19 01:02:25;;;;;;;19.35;3.05;;;14.70;99.90;;;;;;5056954;28;20040;-27
2022/06/19 01:04:54;;;;;;;11.65;2.90;;;14.70;99.90;;;;;;5048935;28;20048;-28
2022/06/19 01:07:22;;;;;;;12.30;3.38;;;14.70;99.90;;;;;;5035812;28;20037;-27
2022/06/19 01:09:49;;;;;;;13.05;2.97;;;14.70;99.90;;;;;;5035992;28;20116;-27
2022/06/19 01:12:15;;;;;;;15.95;3.30;;;14.70;99.90;;;;;;5047937;28;20037;-27
2022/06/19 01:14:44;;;;;;;14.75;2.90;;;14.70;99.90;;;;;;5037406;28;20044;-27
2022/06/19 01:17:12;;;;;;;13.38;2.85;;;14.70;99.90;;;;;;5037635;28;20469;-34
2022/06/19 01:19:41;;;;;;;9.90;2.85;;;14.70;99.90;;;;;;5055105;28;20043;-27
2022/06/19 01:22:28;;;;;;;13.35;3.10;;;14.70;99.90;;;;;;5046786;28;20052;-27
2022/06/19 01:25:10;;;;;;;13.07;3.03;;;14.80;99.90;;;;;;5044401;28;20045;-27
2022/06/19 01:30:28;;;;;;;13.35;2.83;;;14.80;99.90;;;;;;5025542;28;20045;-27
2022/06/19 01:32:56;;;;;;;10.57;2.70;;;14.80;99.90;;;;;;5049199;28;20041;-27
2022/06/19 01:35:24;;;;;;;11.77;3.00;;;14.80;99.90;;;;;;5055556;28;20504;-27
2022/06/19 01:37:51;;;;;;;11.27;2.67;;;14.80;99.90;;;;;;5055224;28;20048;-27
2022/06/19 01:40:27;;;;;;;10.52;2.92;;;14.80;99.90;;;;;;5055822;28;20037;-27
2022/06/19 01:42:54;;;;;;;10.57;2.38;;;14.80;99.90;;;;;;5055106;28;20052;-27
2022/06/19 01:45:21;;;;;;;12.32;3.08;;;14.90;99.90;;;;;;5055228;28;20041;-27
2022/06/19 01:47:47;;;;;;;11.82;4.03;;;14.90;99.90;;;;;;5054871;28;20043;-27
2022/06/19 01:50:16;;;;;;;11.18;2.95;;;14.90;99.90;;;;;;5038565;28;20091;-27
2022/06/19 01:52:43;;;;;;;9.68;2.85;;;14.90;99.90;;;;;;5016953;28;20135;-27
2022/06/19 01:55:15;;;;;;;10.18;2.33;;;14.90;99.90;;;;;;5016826;28;20072;-27
2022/06/19 01:57:48;;;;;;;9.75;2.88;;;14.90;99.90;;;;;;5035039;28;20045;-27
2022/06/19 02:00:20;;;;;;;11.80;3.00;;;14.90;99.90;;;;;;5034621;28;20034;-27
2022/06/19 02:03:04;;;;;;;11.55;2.85;;;15.00;99.90;;;;;;5034335;28;20048;-27
2022/06/19 02:05:32;;;;;;;10.70;3.08;;;15.00;99.90;;;;;;5034926;28;20116;-27
2022/06/19 02:07:58;;;;;;;11.85;2.40;;;15.00;99.90;;;;;;5041651;28;20033;-26
2022/06/19 02:10:24;;;;;;;9.05;2.60;;;15.00;99.90;;;;;;5054775;28;20595;-27
2022/06/19 02:12:50;;;;;;;12.63;3.17;;;15.00;99.90;;;;;;5054592;28;20511;-27
2022/06/19 02:15:16;;;;;;;13.10;2.30;;;15.00;99.90;;;;;;5054757;28;20435;-27
2022/06/19 02:17:49;;;;;;;9.50;2.15;;;15.10;99.90;;;;;;5055009;28;20392;-27
2022/06/19 02:20:15;;;;;;;10.52;2.33;;;15.00;99.90;;;;;;5054499;28;20037;-28
2022/06/19 02:22:41;;;;;;;10.27;2.17;;;15.10;99.90;;;;;;5054448;28;20392;-27
2022/06/19 02:25:07;;;;;;;6.78;1.77;;;15.00;99.90;;;;;;5037154;28;20300;-26
2022/06/19 02:27:34;;;;;;;6.57;1.50;;;15.00;99.90;;;;;;5054165;28;20044;-27
2022/06/19 02:30:01;;;;;;;8.65;2.42;;;15.00;99.90;;;;;;5054408;28;20044;-27
2022/06/19 02:32:49;;;;;;;9.57;2.05;;;15.00;99.90;;;;;;5046423;28;20042;-27
2022/06/19 02:35:21;;;;;;;9.55;2.78;;;15.00;99.90;;;;;;5045666;28;20397;-29
2022/06/19 02:37:50;;;;;;;6.43;1.80;;;15.00;99.90;;;;;;5042014;28;20231;-29
2022/06/19 02:40:47;;;;;;;6.38;1.73;;;15.00;99.90;;;;;;5018731;28;20497;-29
2022/06/19 02:43:25;;;;;;;12.90;2.30;;;14.90;99.90;;;;;;5035081;28;20056;-28
2022/06/19 02:45:51;;;;;;;10.60;2.00;;;14.80;99.90;;;;;;5045865;28;20044;-28
2022/06/19 02:48:29;;;;;;;10.60;1.92;;;14.80;99.90;;;;;;5043286;28;20549;-28
2022/06/19 02:50:58;;;;;;;7.30;1.80;;;14.90;99.90;;;;;;5039907;28;20033;-28
2022/06/19 02:53:25;;;;;;;7.90;2.17;;;14.80;99.90;;;;;;5040905;28;20038;-28
2022/06/19 02:55:51;;;;;;;6.80;1.98;;;14.90;99.90;;;;;;5038610;28;20382;-28
2022/06/19 02:58:19;;;;;;;6.05;2.00;;;14.90;99.90;;;;;;5020170;28;20471;-29
2022/06/19 03:00:46;;;;;;;9.55;2.08;;;14.90;99.90;;;;;;5040923;28;20172;-29
2022/06/19 03:03:35;;;;;;;6.30;2.65;;;14.90;99.90;;;;;;5042525;28;20551;-28
2022/06/19 03:06:03;;;;;;;7.20;1.90;;;14.90;99.90;;;;;;5004521;28;20065;-28
2022/06/19 03:08:28;;;;;;;8.70;1.80;;;14.90;99.90;;;;;;5037401;28;20037;-28
2022/06/19 03:10:54;;;;;;;12.35;2.28;;;14.90;99.90;;;;;;5039923;28;20156;-28
2022/06/19 03:13:21;;;;;;;9.98;2.20;;;15.00;99.90;;;;;;5022276;28;20041;-29
2022/06/19 03:15:47;;;;;;;7.65;1.88;;;14.90;99.90;;;;;;5044493;28;20083;-28
2022/06/19 03:18:13;;;;;;;6.20;1.90;;;15.00;99.90;;;;;;5040429;28;20037;-29
2022/06/19 03:20:39;;;;;;;7.63;2.15;;;15.00;99.90;;;;;;5040289;28;20033;-28
2022/06/19 03:23:05;;;;;;;6.10;2.13;;;15.00;99.90;;;;;;5039904;28;20397;-28
2022/06/19 03:25:30;;;;;;;11.48;2.42;;;14.90;99.90;;;;;;5018213;28;20041;-28
2022/06/19 03:27:57;;;;;;;10.27;2.38;;;15.00;99.90;;;;;;5037264;28;20509;-28
2022/06/19 03:30:23;;;;;;;7.38;2.55;;;15.00;99.90;;;;;;5046815;28;20051;-28
2022/06/19 03:32:49;;;;;;;9.63;2.15;;;15.00;99.90;;;;;;5034674;28;20036;-26
2022/06/19 03:35:16;;;;;;;13.13;2.40;;;15.00;99.90;;;;;;5052411;28;20033;-26
2022/06/19 03:37:41;;;;;;;6.57;2.00;;;15.00;99.90;;;;;;5052715;28;20049;-26
2022/06/19 03:40:08;;;;;;;10.98;2.42;;;15.00;99.90;;;;;;5034876;28;20490;-26
2022/06/19 03:42:34;;;;;;;9.70;2.60;;;14.90;99.90;;;;;;5032038;28;20068;-26
2022/06/19 03:45:00;;;;;;;8.75;2.75;;;14.90;99.90;;;;;;5052442;28;20064;-27
2022/06/19 03:47:27;;;;;;;10.80;2.97;;;14.90;99.90;;;;;;5052445;28;20039;-27
2022/06/19 03:49:53;;;;;;;9.90;2.60;;;14.90;99.90;;;;;;5040326;28;20435;-26
2022/06/19 03:52:19;;;;;;;7.72;2.83;;;14.80;99.90;;;;;;5037893;28;20093;-26
2022/06/19 03:54:44;;;;;;;12.40;2.92;;;14.80;99.90;;;;;;5034583;28;20132;-26
2022/06/19 03:57:14;;;;;;;13.95;2.67;;;14.70;99.90;;;;;;5052294;28;20080;-26
2022/06/19 03:59:40;;;;;;;10.40;2.88;;;14.70;99.90;;;;;;5052281;28;20041;-26
2022/06/19 04:02:08;;;;;;;11.20;2.72;;;14.70;99.90;;;;;;5051605;28;20041;-26
2022/06/19 04:04:36;;;;;;;9.48;2.40;;;14.70;99.90;;;;;;5033749;28;20069;-26
2022/06/19 04:07:02;;;;;;;8.73;2.45;;;14.70;99.90;;;;;;5051487;28;20082;-26
2022/06/19 04:09:28;;;;;;;11.70;2.75;;;14.60;99.90;;;;;;5051018;28;20032;-26
2022/06/19 04:11:54;;;;;;;12.13;2.65;;;14.60;99.90;;;;;;5045061;28;20236;-28
2022/06/19 04:14:19;;;;;;;9.68;2.80;;;14.60;99.90;;;;;;5044829;28;20042;-29
2022/06/19 04:16:45;;;;;;;9.48;2.70;;;14.60;99.90;;;;;;5045577;28;20040;-28
2022/06/19 04:19:11;;;;;;;11.63;2.83;;;14.60;99.90;;;;;;5031584;28;20267;-28
2022/06/19 04:21:42;;;;;;;7.60;2.00;;;14.60;99.90;;;;;;5040608;28;20033;-28
2022/06/19 04:24:11;;;;;;;10.65;2.67;;;14.50;99.90;;;;;;5036521;28;20029;-29
2022/06/19 04:26:39;;;;;;;11.25;2.58;;;14.50;99.90;;;;;;5037237;28;20029;-28
2022/06/19 04:29:05;;;;;;;10.93;2.38;;;14.50;99.90;;;;;;5037752;28;20127;-29
2022/06/19 04:31:32;;;;;;;11.75;2.70;;;14.50;99.90;;;;;;5045347;28;20153;-28
2022/06/19 04:33:57;;;;;;;10.68;3.22;;;14.50;99.90;;;;;;5044283;28;20049;-29
2022/06/19 04:36:25;;;;;;;9.13;2.47;;;14.50;99.90;;;;;;5041448;28;20033;-29
2022/06/19 04:38:55;;;;;;;10.23;2.72;;;14.50;99.90;;;;;;5038626;28;21092;-29
2022/06/19 04:41:27;;;;;;;9.57;2.85;;;14.50;99.90;;;;;;5027593;28;20098;-28
2022/06/19 04:43:54;;;;;;;9.98;2.80;;;14.40;99.90;;;;;;5016744;28;20033;-28
2022/06/19 04:46:20;;;;;;;11.73;2.25;;;14.40;99.90;;;;;;5040430;28;20034;-28
2022/06/19 04:48:47;;;;;;;10.77;2.25;;;14.40;99.90;;;;;;5038181;28;20481;-29
2022/06/19 04:51:13;;;;;;;8.90;2.60;;;14.40;99.90;;;;;;5040951;28;20121;-29
2022/06/19 04:53:39;;;;;;;8.80;2.50;;;14.40;99.90;;;;;;5021630;28;20051;-28
2022/06/19 04:56:07;;;;;;;5.78;1.95;;;14.40;99.90;;;;;;5040149;28;20430;-29
2022/06/19 04:58:33;;;;;;;8.63;2.28;;;14.40;99.90;;;;;;5041821;28;20095;-29
2022/06/19 05:01:01;;;;;;;10.73;2.53;;;14.40;99.90;;;;;;5045510;28;20037;-28
2022/06/19 05:03:28;;;;;;;7.93;2.28;;;14.50;99.90;;;;;;5042599;28;20102;-29
2022/06/19 05:05:54;;;;;;;7.15;1.75;;;14.60;99.90;;;;;;5040131;28;20103;-28
2022/06/19 05:08:21;;;;;;;10.05;2.17;;;14.70;99.90;;;;;;5038381;28;20099;-28
2022/06/19 05:10:47;;;;;;;6.05;1.95;;;14.80;99.90;;;;;;5044409;28;20504;-29
2022/06/19 05:13:21;;;;;;;10.23;2.08;;;14.90;99.90;;;;;;5040975;28;20029;-28
2022/06/19 05:15:48;;;;;;;7.43;2.00;;;15.10;99.90;;;;;;5028004;28;20036;-28
2022/06/19 05:18:15;;;;;;;6.50;1.65;;;15.20;99.90;;;;;;5041824;28;20041;-28
2022/06/19 05:20:41;;;;;;;9.18;2.03;;;15.40;99.90;;;;;;5045086;28;20396;-28
2022/06/19 05:23:09;;;;;;;9.60;2.25;;;15.60;99.90;;;;;;5038444;28;20052;-28
2022/06/19 05:25:35;;;;;;;6.95;1.92;;;15.70;99.90;;;;;;5042578;28;20614;-29
2022/06/19 05:28:01;;;;;;;6.60;1.98;;;15.80;99.90;;;;;;5021131;28;20055;-28
2022/06/19 05:30:27;;;;;;;8.77;1.83;;;15.90;99.90;;;;;;5041459;28;20045;-28
2022/06/19 05:32:53;;;;;;;6.25;1.80;;;16.00;99.90;;;;;;5051155;28;20132;-28
2022/06/19 05:35:20;;;;;;;7.88;2.00;;;16.00;99.90;;;;;;5033663;28;20046;-28
2022/06/19 05:37:46;;;;;;;3.83;1.50;;;16.00;99.90;;;;;;5037954;28;20440;-26
2022/06/19 05:40:12;;;;;;;10.18;1.63;;;16.00;99.90;;;;;;5033818;28;20046;-26
2022/06/19 05:42:38;;;;;;;7.47;1.63;;;16.00;99.90;;;;;;5052012;28;20037;-26
2022/06/19 05:45:05;;;;;;;8.90;1.98;;;15.90;99.90;;;;;;5053569;28;20067;-26
2022/06/19 05:47:31;;;;;;;7.50;1.70;;;15.80;99.90;;;;;;5053423;28;20052;-25
2022/06/19 05:49:57;;;;;;;4.18;1.60;;;15.70;99.90;;;;;;5053594;28;20485;-25
2022/06/19 05:52:24;;;;;;;6.78;1.83;;;15.70;99.90;;;;;;5053814;28;20043;-25
2022/06/19 05:54:52;;;;;;;8.73;1.88;;;15.60;99.90;;;;;;5053785;28;20041;-25
2022/06/19 05:57:18;;;;;;;5.65;1.73;;;15.60;99.90;;;;;;5045130;28;20095;-26
2022/06/19 05:59:44;;;;;;;9.25;1.98;;;15.50;99.90;;;;;;5033515;28;20029;-25
2022/06/19 06:02:13;;;;;;;8.48;1.70;;;15.50;99.90;;;;;;5048803;28;20041;-25
2022/06/19 06:04:39;;;;;;;8.73;2.05;;;15.50;99.90;;;;;;5035464;28;20400;-26
2022/06/19 06:07:10;;;;;;;6.38;1.70;;;15.60;99.90;;;;;;5053730;28;20041;-26
2022/06/19 06:09:36;;;;;;;9.38;1.63;;;15.70;99.90;;;;;;5053380;28;20040;-26
2022/06/19 06:12:03;;;;;;;11.52;2.40;;;15.80;99.90;;;;;;5053006;28;20511;-26
2022/06/19 06:14:29;;;;;;;8.90;2.17;;;16.00;99.90;;;;;;5053419;28;20396;-26
2022/06/19 06:16:55;;;;;;;8.68;2.03;;;16.10;99.90;;;;;;5035629;28;20037;-26
2022/06/19 06:19:20;;;;;;;10.55;2.33;;;16.20;99.90;;;;;;5035339;28;20043;-26
2022/06/19 06:21:46;;;;;;;7.80;2.10;;;16.10;99.90;;;;;;5053175;28;20151;-26
2022/06/19 06:24:14;;;;;;;8.13;2.08;;;16.00;99.90;;;;;;5053226;28;20041;-26
2022/06/19 06:26:40;;;;;;;9.52;2.30;;;16.00;99.90;;;;;;5041529;28;20046;-26
2022/06/19 06:29:07;;;;;;;10.32;2.08;;;15.90;99.90;;;;;;5051033;28;20120;-26
2022/06/19 06:31:33;;;;;;;7.03;1.90;;;15.90;99.90;;;;;;5036459;28;20045;-26
2022/06/19 06:33:59;;;;;;;8.68;2.30;;;15.90;99.90;;;;;;5038078;28;20044;-26
2022/06/19 06:36:27;;;;;;;8.60;2.35;;;15.90;99.90;;;;;;5034398;28;20139;-26
2022/06/19 06:38:52;;;;;;;11.25;2.38;;;15.90;99.90;;;;;;5034865;28;20041;-26
2022/06/19 06:41:18;;;;;;;10.40;2.45;;;15.90;99.90;;;;;;5052797;28;20033;-26
2022/06/19 06:43:45;;;;;;;9.45;2.20;;;15.80;99.90;;;;;;5052636;28;20051;-26
2022/06/19 06:46:15;;;;;;;8.52;2.47;;;15.70;99.90;;;;;;5052475;28;20052;-26
2022/06/19 06:48:42;;;;;;;10.98;2.70;;;15.70;99.90;;;;;;5037689;28;20247;-26
2022/06/19 06:51:19;;;;;;;10.63;2.80;;;15.70;99.90;;;;;;5032612;28;20099;-26
2022/06/19 06:53:45;;;;;;;9.27;2.15;;;15.60;99.90;;;;;;5051635;28;20488;-26
2022/06/19 06:56:11;;;;;;;10.65;2.92;;;15.60;99.90;;;;;;5046441;28;20045;-26
2022/06/19 06:58:38;;;;;;;9.48;2.40;;;15.60;99.90;;;;;;5032515;28;20037;-26
2022/06/19 07:01:08;;;;;;;7.65;2.88;;;15.50;99.90;;;;;;5032208;28;20041;-26
2022/06/19 07:03:34;;;;;;;10.93;2.30;;;15.50;99.90;;;;;;5032684;28;20107;-26
2022/06/19 07:06:00;;;;;;;12.43;2.50;;;15.40;99.90;;;;;;5043990;28;20531;-26
2022/06/19 07:08:26;;;;;;;9.90;2.35;;;15.40;99.90;;;;;;5052392;28;20125;-26
2022/06/19 07:10:52;;;;;;;7.30;2.40;;;15.50;99.90;;;;;;5052150;28;20384;-27
2022/06/19 07:13:18;;;;;;;6.90;2.22;;;15.50;99.90;;;;;;5034127;28;20041;-27
2022/06/19 07:15:44;;;;;;;9.20;2.03;;;15.60;99.90;;;;;;5052450;28;20048;-27
2022/06/19 07:18:11;;;;;;;8.80;2.15;;;15.60;99.90;;;;;;5052680;28;20396;-27
2022/06/19 07:20:37;;;;;;;6.40;2.22;;;15.70;99.90;;;;;;5034084;28;20132;-27
2022/06/19 07:23:04;;;;;;;7.07;2.17;;;15.60;99.90;;;;;;5050501;28;20045;-27
2022/06/19 07:25:31;;;;;;;9.27;2.30;;;15.60;99.90;;;;;;5050771;28;20056;-27
2022/06/19 07:27:59;;;;;;;8.82;2.20;;;15.60;99.90;;;;;;5051491;28;20044;-27
2022/06/19 07:30:26;;;;;;;10.73;2.35;;;15.60;99.90;;;;;;5033412;28;20048;-27
2022/06/19 07:32:53;;;;;;;6.97;2.20;;;15.50;99.90;;;;;;5051662;28;20119;-27
2022/06/19 07:35:19;;;;;;;10.00;2.70;;;15.60;99.90;;;;;;5051689;28;20116;-27
2022/06/19 07:37:45;;;;;;;11.15;2.30;;;15.60;99.90;;;;;;5043256;28;20528;-27
2022/06/19 07:40:14;;;;;;;10.35;2.40;;;15.60;99.90;;;;;;5051094;28;20397;-27
2022/06/19 07:42:39;;;;;;;12.75;2.40;;;15.60;99.90;;;;;;5036874;28;20036;-27
2022/06/19 07:45:05;;;;;;;8.48;2.30;;;15.70;99.90;;;;;;5053499;28;20446;-27
2022/06/19 07:50:17;;;;;;;7.25;2.88;;;15.70;99.90;;;;;;5051604;28;20489;-27
2022/06/19 07:52:46;;;;;;;10.88;2.58;;;15.70;99.90;;;;;;5051403;28;20041;-27
2022/06/19 07:55:16;;;;;;;8.35;2.42;;;15.60;99.90;;;;;;5052197;28;20048;-27
2022/06/19 07:57:42;;;;;;;6.95;1.98;;;15.60;99.90;;;;;;5055971;28;20040;-27
2022/06/19 08:00:12;;;;;;;8.55;2.50;;;15.60;99.90;;;;;;5058343;28;20049;-27
2022/06/19 08:02:37;;;;;;;9.70;2.25;;;15.60;99.90;;;;;;5047661;28;20033;-26
2022/06/19 08:05:05;;;;;;;10.98;2.65;;;15.60;99.90;;;;;;5051832;28;20044;-27
2022/06/19 08:07:31;;;;;;;10.63;2.75;;;15.60;99.90;;;;;;5051333;28;20082;-27
2022/06/19 08:09:57;;;;;;;7.55;2.20;;;15.60;99.90;;;;;;5023277;28;20041;-27
2022/06/19 08:12:23;;;;;;;7.60;2.45;;;15.60;99.90;;;;;;5051769;28;20044;-27
2022/06/19 08:14:48;;;;;;;7.35;2.33;;;15.60;99.90;;;;;;5045926;28;20067;-27
2022/06/19 08:17:14;;;;;;;9.43;2.17;;;15.60;99.90;;;;;;5040719;28;20083;-27
2022/06/19 08:19:40;;;;;;;8.43;2.42;;;15.70;99.90;;;;;;5049324;28;20038;-27
2022/06/19 08:22:05;;;;;;;9.73;2.30;;;15.70;99.90;;;;;;5055772;28;20067;-26
2022/06/19 08:24:31;;;;;;;9.05;2.33;;;15.70;99.90;;;;;;5037194;28;20538;-27
2022/06/19 08:27:01;;;;;;;11.15;1.90;;;15.70;99.90;;;;;;5051452;28;20052;-27
2022/06/19 08:29:27;;;;;;;11.57;2.63;;;15.80;99.90;;;;;;5051482;28;20045;-27
2022/06/19 08:31:52;;;;;;;4.32;1.98;;;15.90;99.90;;;;;;5051343;28;20446;-28
2022/06/19 08:34:18;;;;;;;10.25;2.50;;;16.00;99.90;;;;;;5051595;28;20048;-27
2022/06/19 08:36:44;;;;;;;9.93;2.45;;;16.20;99.90;;;;;;5033253;28;20416;-27
2022/06/19 08:39:14;;;;;;;7.32;2.13;;;16.30;99.90;;;;;;5032960;28;20124;-27
2022/06/19 08:42:00;;;;;;;8.88;2.15;;;16.40;99.90;;;;;;5051594;28;20063;-27
2022/06/19 08:45:02;;;;;;;6.22;1.70;;;16.50;99.90;;;;;;5051302;28;20115;-27
2022/06/19 08:47:33;;;;;;;8.38;2.10;;;16.50;99.90;;;;;;5044478;28;20129;-27
2022/06/19 08:50:11;;;;;;;7.90;2.45;;;16.60;99.90;;;;;;5046617;28;20099;-27
2022/06/19 08:53:06;;;;;;;9.02;2.22;;;16.60;99.90;;;;;;5052784;28;20041;-27
2022/06/19 08:55:50;;;;;;;7.50;1.80;;;16.50;99.90;;;;;;5051874;28;20096;-27
2022/06/19 08:58:36;;;;;;;9.40;1.85;;;16.50;99.90;;;;;;5026912;28;20037;-27
2022/06/19 09:01:20;;;;;;;8.88;2.30;;;16.40;99.90;;;;;;5059258;28;20055;-27
2022/06/19 09:06:45;;;;;;;6.43;2.33;;;16.50;99.90;;;;;;5072932;28;20131;-27
2022/06/19 09:09:32;;;;;;;8.23;2.28;;;16.50;99.90;;;;;;5057132;28;20091;-27
2022/06/19 09:12:10;;;;;;;7.93;2.25;;;16.60;99.90;;;;;;5041644;28;20044;-27
2022/06/19 09:14:54;;;;;;;10.55;2.47;;;16.50;99.90;;;;;;5061697;28;20377;-27
2022/06/19 09:17:34;;;;;;;7.05;2.10;;;16.50;99.90;;;;;;5054452;28;20137;-27
2022/06/19 09:20:12;;;;;;;6.95;2.17;;;16.60;99.90;;;;;;5054253;28;20120;-27
2022/06/19 09:23:06;;;;;;;7.25;1.80;;;16.70;99.90;;;;;;5052978;28;20374;-27
2022/06/19 09:25:51;;;;;;;8.27;2.25;;;16.70;99.90;;;;;;5049989;28;20069;-29
2022/06/19 09:28:33;;;;;;;8.82;2.38;;;16.90;99.90;;;;;;5036086;28;20040;-29
2022/06/19 09:31:15;;;;;;;9.57;2.08;;;17.00;99.90;;;;;;5035734;28;20033;-27
2022/06/19 09:33:57;;;;;;;11.65;2.25;;;17.00;99.90;;;;;;5034753;28;20045;-27
2022/06/19 09:36:22;;;;;;;8.57;2.05;;;17.00;99.90;;;;;;5054760;28;20149;-27
2022/06/19 09:38:52;;;;;;;7.35;1.95;;;17.10;99.90;;;;;;5020442;28;20072;-28
2022/06/19 09:41:36;;;;;;;6.60;2.65;;;17.30;99.90;;;;;;5019872;28;20052;-27
2022/06/19 09:44:08;;;;;;;13.85;2.90;;;17.40;99.90;;;;;;5053458;28;20044;-27
2022/06/19 09:46:47;;;;;;;12.23;2.50;;;17.60;99.90;;;;;;5032482;28;20076;-27
2022/06/19 09:49:27;;;;;;;8.98;2.53;;;17.70;99.90;;;;;;5045540;28;20041;-27
2022/06/19 09:52:00;;;;;;;9.27;2.22;;;17.90;99.90;;;;;;5044127;28;20037;-27
2022/06/19 09:54:38;;;;;;;7.95;2.25;;;18.00;99.90;;;;;;5037116;28;20088;-27
2022/06/19 09:57:19;;;;;;;10.10;2.20;;;18.20;99.90;;;;;;5050431;28;20553;-27
2022/06/19 10:00:24;;;;;;;11.32;2.53;;;18.30;99.90;;;;;;5050730;28;20060;-28
2022/06/19 10:03:00;;;;;;;10.60;2.67;;;18.20;99.90;;;;;;4952937;28;20050;-27
2022/06/19 10:05:41;;;;;;;11.35;2.67;;;18.10;99.90;;;;;;4991150;28;20068;-27
2022/06/19 10:08:19;;;;;;;8.00;2.28;;;18.00;99.90;;;;;;5051686;28;20574;-27
2022/06/19 10:10:50;;;;;;;11.25;2.75;;;17.80;99.90;;;;;;5053410;28;20041;-27
2022/06/19 10:13:38;;;;;;;8.05;2.15;;;17.80;99.90;;;;;;5034611;28;20041;-27
2022/06/19 10:16:20;;;;;;;8.95;2.30;;;17.80;99.90;;;;;;5031594;28;20037;-29
2022/06/19 10:18:51;;;;;;;11.60;2.47;;;17.80;99.90;;;;;;5045334;28;20059;-29
2022/06/19 10:24:38;;;;;;;7.13;2.53;;;17.70;99.90;;;;;;5035953;28;20049;-29
2022/06/19 10:27:49;;;;;;;8.02;2.00;;;17.60;99.90;;;;;;5048808;28;20050;-27
2022/06/19 10:30:35;;;;;;;9.70;2.55;;;17.40;99.90;;;;;;4999280;28;20505;-27
2022/06/19 10:33:30;;;;;;;6.97;2.03;;;17.40;99.90;;;;;;5037634;28;20049;-27
2022/06/19 10:36:02;;;;;;;10.27;2.75;;;17.40;99.90;;;;;;5030928;28;20403;-27
2022/06/19 10:39:03;;;;;;;9.48;2.45;;;17.60;99.90;;;;;;5044371;28;20029;-27
2022/06/19 10:42:05;;;;;;;9.43;2.72;;;17.80;99.90;;;;;;5002298;28;20081;-26
2022/06/19 10:44:33;;;;;;;7.00;2.30;;;18.00;99.90;;;;;;5042613;28;20044;-27
2022/06/19 10:47:02;;;;;;;7.68;2.22;;;18.20;99.90;;;;;;5050614;28;20048;-27
2022/06/19 10:49:52;;;;;;;9.85;2.25;;;18.20;99.90;;;;;;5034125;28;20033;-27
2022/06/19 10:52:41;;;;;;;8.95;2.20;;;18.10;99.90;;;;;;5053285;28;20122;-27
2022/06/19 10:55:29;;;;;;;7.90;2.30;;;18.00;99.90;;;;;;5046343;28;20041;-27
2022/06/19 10:58:13;;;;;;;7.53;1.70;;;17.90;99.90;;;;;;5041192;28;20635;-27
2022/06/19 11:00:39;;;;;;;10.65;2.08;;;17.70;99.90;;;;;;5052518;28;20120;-27
2022/06/19 11:06:10;;;;;;;9.50;2.30;;;17.30;99.90;;;;;;5052927;28;20404;-27
2022/06/19 11:08:39;;;;;;;8.80;2.53;;;17.20;99.90;;;;;;5052856;28;20044;-28
2022/06/19 11:11:06;;;;;;;5.35;2.03;;;17.10;99.90;;;;;;5050201;28;20037;-27
2022/06/19 11:13:56;;;;;;;7.22;2.38;;;17.10;99.90;;;;;;5052730;28;20064;-27
2022/06/19 11:16:22;;;;;;;7.53;2.75;;;17.00;99.90;;;;;;5032455;28;20037;-27
2022/06/19 11:18:50;;;;;;;8.15;3.22;;;17.10;99.90;;;;;;5019804;28;20072;-27
2022/06/19 11:21:20;;;;;;;7.28;2.60;;;17.10;99.90;;;;;;5052430;28;20029;-27
2022/06/19 11:23:48;;;;;;;8.43;2.45;;;17.30;99.90;;;;;;5052281;28;20109;-27
2022/06/19 11:26:17;;;;;;;10.00;3.00;;;17.60;99.90;;;;;;5052240;28;20052;-27
2022/06/19 11:28:47;;;;;;;10.98;3.60;;;17.70;99.90;;;;;;5051761;28;20083;-28
2022/06/19 11:31:18;;;;;;;6.60;2.80;;;17.70;99.90;;;;;;5052249;28;20045;-27
2022/06/19 11:33:46;;;;;;;5.35;2.28;;;17.70;99.90;;;;;;5051725;28;20037;-27
2022/06/19 11:36:35;;;;;;;9.75;2.67;;;17.70;99.90;;;;;;5052196;28;20048;-27
2022/06/19 11:39:23;;;;;;;7.50;2.55;;;17.60;99.90;;;;;;5053036;28;20045;-27
2022/06/19 11:41:48;;;;;;;7.28;2.45;;;17.60;99.90;;;;;;5052710;28;20037;-27
2022/06/19 11:44:17;;;;;;;8.13;2.20;;;17.50;99.90;;;;;;5052764;28;20607;-27
2022/06/19 11:46:54;;;;;;;7.68;2.30;;;17.50;99.90;;;;;;5052830;28;20365;-26
2022/06/19 11:49:25;;;;;;;8.25;2.45;;;17.40;99.90;;;;;;5052011;28;20045;-27
2022/06/19 11:51:53;;;;;;;6.32;2.13;;;17.40;99.90;;;;;;5052145;28;20045;-27
2022/06/19 11:54:31;;;;;;;4.45;1.67;;;17.40;99.90;;;;;;5052193;28;20047;-27
2022/06/19 11:56:58;;;;;;;6.07;2.20;;;17.50;99.90;;;;;;5051760;28;20044;-27
2022/06/19 11:59:46;;;;;;;5.60;1.90;;;17.50;99.90;;;;;;5034582;28;20064;-28
2022/06/19 12:02:28;;;;;;;6.22;1.70;;;17.60;99.90;;;;;;5052282;28;20052;-27
2022/06/19 12:04:57;;;;;;;5.45;1.92;;;17.70;99.90;;;;;;5052101;28;20106;-28
2022/06/19 12:07:25;;;;;;;4.65;1.45;;;17.70;99.90;;;;;;5052486;28;20036;-28
2022/06/19 12:09:57;;;;;;;3.60;1.58;;;17.60;99.90;;;;;;5026807;28;20045;-26
2022/06/19 12:12:23;;;;;;;4.25;1.70;;;17.60;99.90;;;;;;5047301;28;20036;-27
2022/06/19 12:14:52;;;;;;;4.80;1.55;;;17.60;99.90;;;;;;5044442;28;20044;-27
2022/06/19 12:17:25;;;;;;;6.40;1.98;;;17.60;99.90;;;;;;5021754;28;20442;-27
2022/06/19 12:20:07;;;;;;;5.70;1.70;;;17.60;99.90;;;;;;5031479;28;20500;-27
2022/06/19 12:22:52;;;;;;;5.75;1.58;;;17.60;99.90;;;;;;5039831;28;20037;-27
2022/06/19 12:25:36;;;;;;;5.20;1.75;;;17.60;99.90;;;;;;5051924;28;20396;-26
2022/06/19 12:28:09;;;;;;;;;;;17.60;99.90;;;;;;5027607;28;20562;-27
2022/06/19 12:30:53;;;;;;;4.77;1.63;;;17.70;99.90;;;;;;5055872;28;19923;-27
2022/06/19 12:33:27;;;;;;;4.75;1.38;;;17.90;99.90;;;;;;5055708;28;20041;-28
2022/06/19 12:35:52;;;;;;;7.05;1.58;;;18.10;99.90;;;;;;5055295;28;20033;-27
2022/06/19 12:38:21;;;;;;;3.85;1.45;;;18.60;99.90;;;;;;5055339;28;20083;-26
2022/06/19 12:40:47;;;;;;;6.68;1.90;;;19.10;99.90;;;;;;5044022;28;20042;-27
2022/06/19 12:43:22;;;;;;;4.60;1.30;;;19.50;99.90;;;;;;5035553;28;20045;-27
2022/06/19 12:45:56;;;;;;;6.15;1.30;;;20.00;98.10;;;;;;5033714;28;20549;-27
2022/06/19 12:48:45;;;;;;;3.85;1.40;;;20.50;97.50;;;;;;5037386;28;20428;-27
2022/06/19 12:51:19;;;;;;;3.05;1.13;;;20.80;86.70;;;;;;5055472;28;20416;-27
2022/06/19 12:54:13;;;;;;;4.10;1.55;;;20.70;91.60;;;;;;5055058;28;20041;-27
2022/06/19 12:56:57;;;;;;;3.50;1.02;;;20.50;87.30;;;;;;5047941;28;20033;-27
2022/06/19 12:59:41;;;;;;;4.18;1.10;;;20.20;86.30;;;;;;5045964;28;20132;-27
2022/06/19 13:02:10;;;;;;;5.53;1.60;;;20.20;87.50;;;;;;5035936;28;20073;-27
2022/06/19 13:04:53;;;;;;;3.72;1.40;;;20.20;90.50;;;;;;5042687;28;20041;-27
2022/06/19 13:08:04;;;;;;;3.47;1.13;;;20.10;89.20;;;;;;5048948;28;20076;-27
2022/06/19 13:10:54;;;;;;;2.88;1.10;;;19.90;90.50;;;;;;4973852;28;20606;-27
2022/06/19 13:13:29;;;;;;;2.63;1.08;;;19.90;87.20;;;;;;4973893;28;20219;-27
2022/06/19 13:16:02;;;;;;;3.35;0.88;;;19.70;90.80;;;;;;5007548;28;20057;-27
2022/06/19 13:19:10;;;;;;;2.65;1.20;;;19.70;90.60;;;;;;5017578;28;20085;-27
2022/06/19 13:21:55;;;;;;;2.88;0.98;;;19.70;90.40;;;;;;5007630;28;20465;-27